OIIE/IKA METAR and TAF weather

Enter ICAO airport designator
Station Type Date Time Source
OIIE METAR 2020/04/05 20:00 UTC NOAA

OIIE 052000Z 27006KT CAVOK 12/M03 Q1020


Station Type Date Time Source
OIIE Decoded METAR 2020/04/05 20:00 UTC NOAA

Station name not available
Apr 05, 2020 - 04:00 PM EDT / 2020.04.05 2000 UTC
Wind: from the W (270 degrees) at 7 MPH (6 KT):0
Visibility: greater than 7 mile(s):0
Temperature: 53 F (12 C)
Dew Point: 26 F (-3 C)
Relative Humidity: 34%
Pressure (altimeter): 30.12 in. Hg (1020 hPa)
ob: OIIE 052000Z 27006KT CAVOK 12/M03 Q1020
cycle: 20

Station Type Date Time Source
OIIE TAF 2020/04/05 18:00 UTC NOAA

TAF OIIE 051730Z 0518/0624 30018KT 8000 NSC
BECMG 0600/0602 30008KT
BECMG 0618/0620 FEW030CB SCT035 OVC100

Example: see airport list